Time;durP1;ratioP1;P1;durP2;ratioP2;P2;SDS_P1;SDS_P2;PMS_P1;PMS_P2;Temp;Humidity;BMP_temperature;BMP_pressure;BME280_temperature;BME280_humidity;BME280_pressure;Samples;Min_cycle;Max_cycle;Signal;HPM_P1;HPM_P2
2021/12/04 00:00:23;;;;;;;1.73;1.10;;;;;;;;;;5055163;28;20020;-82
2021/12/04 00:02:49;;;;;;;3.57;1.60;;;;;;;;;;5055045;28;20395;-82
2021/12/04 00:05:14;;;;;;;3.47;1.50;;;;;;;;;;5073218;28;20452;-82
2021/12/04 00:07:39;;;;;;;2.93;1.57;;;;;;;;;;5054989;28;20139;-83
2021/12/04 00:10:05;;;;;;;2.17;1.20;;;;;;;;;;5055147;28;20514;-82
2021/12/04 00:12:32;;;;;;;2.17;1.30;;;;;;;;;;5055117;28;20430;-82
2021/12/04 00:14:57;;;;;;;2.97;1.50;;;;;;;;;;5054967;28;20044;-83
2021/12/04 00:17:23;;;;;;;2.33;1.33;;;;;;;;;;5054480;28;20024;-82
2021/12/04 00:19:48;;;;;;;3.83;1.50;;;;;;;;;;5055115;28;20181;-82
2021/12/04 00:22:13;;;;;;;4.17;1.40;;;;;;;;;;5054927;28;20462;-83
2021/12/04 00:24:38;;;;;;;0.87;0.70;;;;;;;;;;5054972;28;20017;-82
2021/12/04 00:27:04;;;;;;;1.63;1.20;;;;;;;;;;5054944;28;20029;-82
2021/12/04 00:29:29;;;;;;;1.93;1.17;;;;;;;;;;5054262;28;20384;-83
2021/12/04 00:31:59;;;;;;;1.57;1.00;;;;;;;;;;5054865;28;20070;-82
2021/12/04 00:34:27;;;;;;;2.73;1.20;;;;;;;;;;5054752;28;20033;-83
2021/12/04 00:37:05;;;;;;;1.57;1.03;;;;;;;;;;5055123;28;20112;-82
2021/12/04 00:50:26;;;;;;;3.50;0.97;;;;;;;;;;5073049;28;20040;-83
2021/12/04 00:52:51;;;;;;;2.90;1.20;;;;;;;;;;5054626;28;20021;-82
2021/12/04 00:55:16;;;;;;;2.10;1.30;;;;;;;;;;5054489;28;20028;-82
2021/12/04 00:57:41;;;;;;;2.37;1.33;;;;;;;;;;5072600;28;20479;-82
2021/12/04 01:00:07;;;;;;;2.23;1.20;;;;;;;;;;5072532;28;20017;-82
2021/12/04 01:02:32;;;;;;;1.47;1.10;;;;;;;;;;5054736;28;20153;-82
2021/12/04 01:04:58;;;;;;;1.80;1.00;;;;;;;;;;5054564;28;20111;-82
2021/12/04 01:07:24;;;;;;;1.80;1.30;;;;;;;;;;5054400;28;20055;-82
2021/12/04 01:09:50;;;;;;;1.83;1.23;;;;;;;;;;5054354;28;20021;-82
2021/12/04 01:12:16;;;;;;;3.20;1.47;;;;;;;;;;5075689;28;20017;-82
2021/12/04 01:14:41;;;;;;;3.57;1.50;;;;;;;;;;5058476;28;20017;-82
2021/12/04 01:17:06;;;;;;;2.93;1.17;;;;;;;;;;5058133;28;20119;-82
2021/12/04 01:19:31;;;;;;;2.33;1.53;;;;;;;;;;5058072;28;20025;-82
2021/12/04 01:21:58;;;;;;;3.23;1.37;;;;;;;;;;5057855;28;20059;-82
2021/12/04 01:24:23;;;;;;;3.27;1.30;;;;;;;;;;5058011;28;20082;-82
2021/12/04 01:26:49;;;;;;;1.63;1.10;;;;;;;;;;5058022;28;20395;-83
2021/12/04 01:29:14;;;;;;;1.80;1.33;;;;;;;;;;5057897;28;20020;-83
2021/12/04 01:31:39;;;;;;;2.23;1.23;;;;;;;;;;5057663;28;20025;-83
2021/12/04 01:34:05;;;;;;;2.83;1.30;;;;;;;;;;5057512;28;20024;-83
2021/12/04 01:36:30;;;;;;;2.00;1.10;;;;;;;;;;5075638;28;20091;-83
2021/12/04 01:38:56;;;;;;;2.13;1.10;;;;;;;;;;5057731;28;20025;-83
2021/12/04 01:41:21;;;;;;;3.00;1.10;;;;;;;;;;5057358;28;20028;-83
2021/12/04 01:43:46;;;;;;;1.47;1.00;;;;;;;;;;5057780;28;20063;-83
2021/12/04 01:46:12;;;;;;;1.80;0.90;;;;;;;;;;5057541;28;20032;-83
2021/12/04 01:48:37;;;;;;;2.30;1.23;;;;;;;;;;5057645;28;20143;-82
2021/12/04 01:51:02;;;;;;;2.77;1.07;;;;;;;;;;5057566;28;20029;-83
2021/12/04 01:53:28;;;;;;;1.70;0.90;;;;;;;;;;5057560;28;20029;-83
2021/12/04 01:55:54;;;;;;;2.90;1.33;;;;;;;;;;5057324;28;20091;-83
2021/12/04 01:58:19;;;;;;;2.47;1.27;;;;;;;;;;5057274;28;20021;-83
2021/12/04 02:00:45;;;;;;;2.50;1.10;;;;;;;;;;5057299;28;20020;-82
2021/12/04 02:03:13;;;;;;;2.33;1.37;;;;;;;;;;5057250;28;20105;-82
2021/12/04 02:05:38;;;;;;;2.47;1.33;;;;;;;;;;5057157;28;20025;-83
2021/12/04 02:08:07;;;;;;;1.73;0.90;;;;;;;;;;5057012;28;20074;-83
2021/12/04 02:10:33;;;;;;;1.87;1.07;;;;;;;;;;5057104;28;20055;-83
2021/12/04 02:12:58;;;;;;;1.63;1.17;;;;;;;;;;5056053;28;20109;-82
2021/12/04 02:15:24;;;;;;;2.47;0.80;;;;;;;;;;5056823;28;20028;-83
2021/12/04 02:17:49;;;;;;;1.30;1.00;;;;;;;;;;5056996;28;20441;-83
2021/12/04 02:20:34;;;;;;;6.30;1.23;;;;;;;;;;5056963;28;20016;-83
2021/12/04 02:23:01;;;;;;;2.70;1.10;;;;;;;;;;5054918;28;20127;-83
2021/12/04 02:25:26;;;;;;;3.33;1.40;;;;;;;;;;5056834;28;20413;-83
2021/12/04 02:27:52;;;;;;;1.93;1.20;;;;;;;;;;5056815;28;20090;-82
2021/12/04 02:30:20;;;;;;;2.20;1.23;;;;;;;;;;5056653;28;20035;-83
2021/12/04 02:32:46;;;;;;;1.97;1.23;;;;;;;;;;5074497;28;20055;-83
2021/12/04 02:35:11;;;;;;;1.70;1.13;;;;;;;;;;5056558;28;20016;-83
2021/12/04 02:37:37;;;;;;;1.80;0.93;;;;;;;;;;5056590;28;20016;-83
2021/12/04 02:40:04;;;;;;;2.07;1.17;;;;;;;;;;5056465;28;20029;-83
2021/12/04 02:42:30;;;;;;;2.23;1.10;;;;;;;;;;5056055;28;20512;-83
2021/12/04 02:44:57;;;;;;;2.40;1.10;;;;;;;;;;5074322;28;20056;-83
2021/12/04 02:47:22;;;;;;;1.43;0.97;;;;;;;;;;5056202;28;20032;-83
2021/12/04 02:49:47;;;;;;;2.07;1.07;;;;;;;;;;5056272;28;20021;-83
2021/12/04 02:52:14;;;;;;;1.27;1.10;;;;;;;;;;5056249;28;20158;-82
2021/12/04 02:54:39;;;;;;;1.40;0.90;;;;;;;;;;5056351;28;20105;-83
2021/12/04 02:57:06;;;;;;;1.50;1.00;;;;;;;;;;5055701;28;20429;-83
2021/12/04 02:59:33;;;;;;;8.20;1.17;;;;;;;;;;5056184;28;20111;-83
2021/12/04 03:01:58;;;;;;;2.00;1.00;;;;;;;;;;5055775;28;20021;-83
2021/12/04 03:04:25;;;;;;;1.50;1.00;;;;;;;;;;5056182;28;20460;-83
2021/12/04 03:06:50;;;;;;;3.30;0.90;;;;;;;;;;5073844;28;20081;-83
2021/12/04 03:09:15;;;;;;;2.73;0.90;;;;;;;;;;5055634;28;20033;-83
2021/12/04 03:11:41;;;;;;;2.23;1.10;;;;;;;;;;5055793;28;20452;-83
2021/12/04 03:14:06;;;;;;;1.50;0.90;;;;;;;;;;5055959;28;20020;-82
2021/12/04 03:16:32;;;;;;;2.20;1.23;;;;;;;;;;5055729;28;20043;-83
2021/12/04 03:18:57;;;;;;;0.87;0.70;;;;;;;;;;5055663;28;20031;-82
2021/12/04 03:21:23;;;;;;;1.97;0.90;;;;;;;;;;5055817;28;20013;-83
2021/12/04 03:24:03;;;;;;;1.80;0.93;;;;;;;;;;5073658;28;20118;-82
2021/12/04 03:26:28;;;;;;;2.20;0.93;;;;;;;;;;5055619;28;20541;-82
2021/12/04 03:28:55;;;;;;;1.50;1.10;;;;;;;;;;5055675;28;20024;-82
2021/12/04 03:42:03;;;;;;;2.93;1.53;;;;;;;;;;5073881;28;20023;-82
2021/12/04 03:44:30;;;;;;;2.90;1.63;;;;;;;;;;5055262;28;20020;-83
2021/12/04 03:46:56;;;;;;;4.50;1.60;;;;;;;;;;5055069;28;20020;-83
2021/12/04 03:49:21;;;;;;;2.77;1.50;;;;;;;;;;5054092;28;20024;-83
2021/12/04 03:51:46;;;;;;;2.77;1.50;;;;;;;;;;5072022;28;20103;-83
2021/12/04 03:54:12;;;;;;;1.83;1.33;;;;;;;;;;5054045;28;20023;-83
2021/12/04 03:56:37;;;;;;;5.10;1.40;;;;;;;;;;5053971;28;20020;-83
2021/12/04 03:59:05;;;;;;;2.03;1.20;;;;;;;;;;5054238;28;20024;-83
2021/12/04 04:01:30;;;;;;;2.47;1.40;;;;;;;;;;5052602;28;20050;-83
2021/12/04 04:03:56;;;;;;;2.17;1.30;;;;;;;;;;5054867;28;20105;-83
2021/12/04 04:06:21;;;;;;;2.30;1.40;;;;;;;;;;5054933;28;20025;-82
2021/12/04 04:08:46;;;;;;;3.23;1.43;;;;;;;;;;5054962;28;20028;-82
2021/12/04 04:11:12;;;;;;;1.77;1.23;;;;;;;;;;5055147;28;20043;-83
2021/12/04 04:13:41;;;;;;;3.63;0.93;;;;;;;;;;5054711;28;20055;-83
2021/12/04 04:16:06;;;;;;;1.77;1.10;;;;;;;;;;5055013;28;20038;-83
2021/12/04 04:18:32;;;;;;;1.33;0.90;;;;;;;;;;5054998;28;20111;-83
2021/12/04 04:20:58;;;;;;;1.10;0.80;;;;;;;;;;5072722;28;20029;-82
2021/12/04 04:23:23;;;;;;;2.17;1.10;;;;;;;;;;5055065;28;20108;-82
2021/12/04 04:25:48;;;;;;;1.97;1.03;;;;;;;;;;5073153;28;20027;-83
2021/12/04 04:28:13;;;;;;;4.20;0.90;;;;;;;;;;5054834;28;20037;-82
2021/12/04 04:30:39;;;;;;;1.50;0.87;;;;;;;;;;5054847;28;20029;-83
2021/12/04 04:33:05;;;;;;;1.20;0.80;;;;;;;;;;5054873;28;20453;-83
2021/12/04 04:35:32;;;;;;;1.20;0.90;;;;;;;;;;5054940;28;20024;-83
2021/12/04 04:38:19;;;;;;;2.73;1.17;;;;;;;;;;5055028;28;20028;-82
2021/12/04 05:13:06;;;;;;;1.63;0.77;;;;;;;;;;5075429;28;20032;-82
2021/12/04 05:20:54;;;;;;;3.53;0.87;;;;;;;;;;5076516;28;20020;-82
2021/12/04 05:23:21;;;;;;;1.23;0.80;;;;;;;;;;5058119;28;20101;-83
2021/12/04 05:25:46;;;;;;;1.73;0.80;;;;;;;;;;5057929;28;20471;-83
2021/12/04 05:28:11;;;;;;;1.43;0.80;;;;;;;;;;5075938;28;20028;-83
2021/12/04 05:30:37;;;;;;;1.53;0.80;;;;;;;;;;5057781;28;20032;-82
2021/12/04 05:33:02;;;;;;;1.90;0.90;;;;;;;;;;5075692;28;20020;-83
2021/12/04 05:35:28;;;;;;;1.60;0.90;;;;;;;;;;5057995;28;20426;-82
2021/12/04 05:37:53;;;;;;;1.87;0.97;;;;;;;;;;5057704;28;20460;-83
2021/12/04 05:40:18;;;;;;;1.80;0.73;;;;;;;;;;5075628;28;20376;-82
2021/12/04 05:42:44;;;;;;;1.27;0.70;;;;;;;;;;5057403;28;20429;-83
2021/12/04 05:45:17;;;;;;;0.90;0.53;;;;;;;;;;5057453;28;20498;-82
2021/12/04 05:47:47;;;;;;;1.30;1.00;;;;;;;;;;5057778;28;20032;-82
2021/12/04 05:50:38;;;;;;;1.67;0.87;;;;;;;;;;5057484;28;20400;-82
2021/12/04 05:53:17;;;;;;;1.37;0.73;;;;;;;;;;5057134;28;20495;-83
2021/12/04 05:58:18;;;;;;;2.20;1.00;;;;;;;;;;5075588;28;20025;-83
2021/12/04 06:00:43;;;;;;;2.23;1.07;;;;;;;;;;5056477;28;20055;-82
2021/12/04 06:03:08;;;;;;;1.67;1.00;;;;;;;;;;5057166;28;20063;-82
2021/12/04 06:05:36;;;;;;;2.33;0.97;;;;;;;;;;5057247;28;20464;-83
2021/12/04 06:08:01;;;;;;;1.30;0.80;;;;;;;;;;5057052;28;20039;-82
2021/12/04 06:10:26;;;;;;;2.20;1.03;;;;;;;;;;5057245;28;20025;-83
2021/12/04 06:12:51;;;;;;;2.70;0.90;;;;;;;;;;5056349;28;20020;-82
2021/12/04 06:15:16;;;;;;;1.07;0.70;;;;;;;;;;5056767;28;20020;-83
2021/12/04 06:17:42;;;;;;;1.50;0.80;;;;;;;;;;5056918;28;20609;-82
2021/12/04 06:22:51;;;;;;;1.37;0.77;;;;;;;;;;5074761;28;20028;-82
2021/12/04 06:25:19;;;;;;;1.97;0.80;;;;;;;;;;5056682;28;20024;-82
2021/12/04 06:27:45;;;;;;;1.77;0.93;;;;;;;;;;5056283;28;20032;-82
2021/12/04 06:30:12;;;;;;;1.70;1.00;;;;;;;;;;5056689;28;20457;-82
2021/12/04 06:32:38;;;;;;;2.23;1.00;;;;;;;;;;5056591;28;20027;-82
2021/12/04 06:35:05;;;;;;;2.07;1.10;;;;;;;;;;5056638;28;20013;-82
2021/12/04 06:37:30;;;;;;;2.83;1.10;;;;;;;;;;5056543;28;20040;-83
2021/12/04 06:39:55;;;;;;;2.47;1.10;;;;;;;;;;5056486;28;20023;-82
2021/12/04 06:42:20;;;;;;;2.33;0.83;;;;;;;;;;5056437;28;20017;-82
2021/12/04 06:44:46;;;;;;;1.70;1.03;;;;;;;;;;5056281;28;20388;-83
2021/12/04 06:47:11;;;;;;;2.80;1.00;;;;;;;;;;5073766;28;20104;-83
2021/12/04 06:49:40;;;;;;;2.37;1.13;;;;;;;;;;5072889;28;20460;-83
2021/12/04 06:52:09;;;;;;;1.40;1.00;;;;;;;;;;5055045;28;20044;-83
2021/12/04 06:54:41;;;;;;;1.87;1.03;;;;;;;;;;5055052;28;20021;-82
2021/12/04 06:57:09;;;;;;;2.08;1.25;;;;;;;;;;5055104;28;20023;-82
2021/12/04 06:59:35;;;;;;;2.67;1.27;;;;;;;;;;5072767;28;20036;-83
2021/12/04 07:02:01;;;;;;;3.97;1.40;;;;;;;;;;5054931;28;20017;-82
2021/12/04 07:04:44;;;;;;;2.30;1.10;;;;;;;;;;5054203;28;20024;-82
2021/12/04 07:07:10;;;;;;;4.77;1.10;;;;;;;;;;5054696;28;20029;-83
2021/12/04 07:09:36;;;;;;;1.60;0.90;;;;;;;;;;5072226;28;20039;-83
2021/12/04 07:12:01;;;;;;;2.53;1.20;;;;;;;;;;5055487;28;20051;-82
2021/12/04 07:14:27;;;;;;;2.40;1.20;;;;;;;;;;5055671;28;20036;-83
2021/12/04 07:16:53;;;;;;;1.17;0.80;;;;;;;;;;5055907;28;20024;-82
2021/12/04 07:19:18;;;;;;;1.07;0.87;;;;;;;;;;5054744;28;20024;-82
2021/12/04 07:21:45;;;;;;;1.20;0.73;;;;;;;;;;5055381;28;20103;-83
2021/12/04 07:24:10;;;;;;;1.50;0.90;;;;;;;;;;5054280;28;20460;-83
2021/12/04 07:26:36;;;;;;;1.53;0.90;;;;;;;;;;5053374;28;20159;-82
2021/12/04 07:29:01;;;;;;;1.63;1.00;;;;;;;;;;5052335;28;20028;-82
2021/12/04 07:31:27;;;;;;;2.33;1.20;;;;;;;;;;5054112;28;20032;-83
2021/12/04 07:33:52;;;;;;;1.63;1.10;;;;;;;;;;5073127;28;20089;-82
2021/12/04 07:36:17;;;;;;;1.90;1.30;;;;;;;;;;5055194;28;20459;-82
2021/12/04 07:38:42;;;;;;;1.30;0.77;;;;;;;;;;5055183;28;20024;-83
2021/12/04 07:41:08;;;;;;;1.83;0.95;;;;;;;;;;5054774;28;20054;-83
2021/12/04 07:43:34;;;;;;;2.47;1.40;;;;;;;;;;5054909;28;20107;-83
2021/12/04 07:45:59;;;;;;;4.30;1.23;;;;;;;;;;5055376;28;20020;-83
2021/12/04 07:48:24;;;;;;;1.95;1.05;;;;;;;;;;5055488;28;20052;-83
2021/12/04 07:50:49;;;;;;;3.80;1.15;;;;;;;;;;5055272;28;20020;-83
2021/12/04 07:53:15;;;;;;;1.70;1.02;;;;;;;;;;5072836;28;20017;-83
2021/12/04 07:55:40;;;;;;;2.50;1.00;;;;;;;;;;5054941;28;20514;-83
2021/12/04 07:58:05;;;;;;;1.75;0.90;;;;;;;;;;5054891;28;20027;-83
2021/12/04 08:00:30;;;;;;;2.78;0.93;;;;;;;;;;5072269;28;20017;-83
2021/12/04 08:02:56;;;;;;;0.75;0.68;;;;;;;;;;5054684;28;20472;-83
2021/12/04 08:05:21;;;;;;;2.03;0.90;;;;;;;;;;5052422;28;20028;-83
2021/12/04 08:07:46;;;;;;;1.38;0.77;;;;;;;;;;5053282;28;20109;-83
2021/12/04 08:10:14;;;;;;;1.23;0.77;;;;;;;;;;5056687;28;20524;-83
2021/12/04 08:12:39;;;;;;;1.30;0.70;;;;;;;;;;5066806;28;20059;-82
2021/12/04 08:15:05;;;;;;;2.78;0.80;;;;;;;;;;5072276;28;20044;-83
2021/12/04 08:17:30;;;;;;;1.20;0.85;;;;;;;;;;5053770;28;20089;-83
2021/12/04 08:19:56;;;;;;;2.72;0.70;;;;;;;;;;5054090;28;20027;-83
2021/12/04 08:22:21;;;;;;;1.38;0.75;;;;;;;;;;5058814;28;20384;-83
2021/12/04 08:24:47;;;;;;;2.15;0.70;;;;;;;;;;5077159;28;20130;-83
2021/12/04 08:27:13;;;;;;;2.08;0.90;;;;;;;;;;5057455;28;20353;-83
2021/12/04 08:29:38;;;;;;;1.10;0.80;;;;;;;;;;5058440;28;20031;-84
2021/12/04 08:32:04;;;;;;;1.17;0.80;;;;;;;;;;5059106;28;20062;-83
2021/12/04 08:34:29;;;;;;;1.67;0.70;;;;;;;;;;5059444;28;20111;-83
2021/12/04 08:36:54;;;;;;;1.73;0.80;;;;;;;;;;5058004;28;20384;-83
2021/12/04 08:39:20;;;;;;;1.67;0.98;;;;;;;;;;5072761;28;20514;-83
2021/12/04 08:41:45;;;;;;;2.90;0.80;;;;;;;;;;5060685;28;20016;-83
2021/12/04 08:44:10;;;;;;;2.83;1.20;;;;;;;;;;5057864;28;20025;-83
2021/12/04 08:46:37;;;;;;;2.17;1.08;;;;;;;;;;5059279;28;20066;-84
2021/12/04 08:49:03;;;;;;;2.53;1.00;;;;;;;;;;5058689;28;20033;-83
2021/12/04 08:51:29;;;;;;;2.45;1.00;;;;;;;;;;5056801;28;20035;-83
2021/12/04 08:53:54;;;;;;;4.63;1.00;;;;;;;;;;5058351;28;20051;-84
2021/12/04 08:56:20;;;;;;;2.90;1.30;;;;;;;;;;5058483;28;20017;-83
2021/12/04 08:58:45;;;;;;;2.45;1.08;;;;;;;;;;5058575;28;20056;-83
2021/12/04 09:01:12;;;;;;;2.40;1.15;;;;;;;;;;5057981;28;20017;-83
2021/12/04 09:03:41;;;;;;;2.60;1.05;;;;;;;;;;5058296;28;20070;-83
2021/12/04 09:06:06;;;;;;;2.78;1.20;;;;;;;;;;5058309;28;20024;-84
2021/12/04 09:08:31;;;;;;;2.35;1.02;;;;;;;;;;5058143;28;20388;-84
2021/12/04 09:10:58;;;;;;;1.30;0.65;;;;;;;;;;5057659;28;20107;-83
2021/12/04 09:13:24;;;;;;;1.52;0.70;;;;;;;;;;5057826;28;20024;-83
2021/12/04 09:15:51;;;;;;;1.00;0.80;;;;;;;;;;5057967;28;20027;-83
2021/12/04 09:18:16;;;;;;;1.83;1.05;;;;;;;;;;5058073;28;20020;-83
2021/12/04 09:20:41;;;;;;;2.05;0.90;;;;;;;;;;5057626;28;20066;-83
2021/12/04 09:23:13;;;;;;;1.75;0.80;;;;;;;;;;5091143;28;20082;-83
2021/12/04 09:25:42;;;;;;;1.83;0.85;;;;;;;;;;5057907;28;20468;-83
2021/12/04 09:28:19;;;;;;;2.08;1.13;;;;;;;;;;5057824;28;20468;-83
2021/12/04 10:19:30;;;;;;;2.47;1.30;;;;;;;;;;5075306;28;20372;-83
2021/12/04 10:22:06;;;;;;;2.65;1.40;;;;;;;;;;5056745;28;20097;-83
2021/12/04 10:24:45;;;;;;;2.50;1.30;;;;;;;;;;5056912;28;20031;-83
2021/12/04 10:32:55;;;;;;;3.03;1.33;;;;;;;;;;5074890;28;20035;-83
2021/12/04 10:35:21;;;;;;;2.45;1.40;;;;;;;;;;5054871;28;20028;-83
2021/12/04 10:37:52;;;;;;;3.58;1.27;;;;;;;;;;5052567;28;20016;-83
2021/12/04 10:40:18;;;;;;;2.17;1.00;;;;;;;;;;5056319;28;20108;-83
2021/12/04 10:42:51;;;;;;;4.72;1.73;;;;;;;;;;5053120;28;20021;-83
2021/12/04 10:45:16;;;;;;;3.05;1.15;;;;;;;;;;5052009;28;20026;-83
2021/12/04 10:47:58;;;;;;;2.45;1.20;;;;;;;;;;5056204;28;20065;-83
2021/12/04 10:50:40;;;;;;;1.98;1.10;;;;;;;;;;5052498;28;20035;-83
2021/12/04 10:53:10;;;;;;;;;;;;;;;;;;5046533;28;20029;-84
2021/12/04 10:55:48;;;;;;;2.75;1.20;;;;;;;;;;5053499;28;19913;-84
2021/12/04 11:00:52;;;;;;;5.13;1.60;;;;;;;;;;5071020;28;20029;-83
2021/12/04 11:03:25;;;;;;;2.47;1.50;;;;;;;;;;5051467;28;20824;-83
2021/12/04 11:26:05;;;;;;;3.67;2.00;;;;;;;;;;5051299;28;20132;-84
2021/12/04 11:38:34;;;;;;;5.67;2.40;;;;;;;;;;5073475;28;20024;-84
2021/12/04 11:41:17;;;;;;;3.73;2.00;;;;;;;;;;5054751;28;20081;-84
2021/12/04 11:44:00;;;;;;;8.67;2.47;;;;;;;;;;5053302;28;20020;-83
2021/12/04 11:46:41;;;;;;;6.47;2.37;;;;;;;;;;5054249;28;20035;-84
2021/12/04 11:49:11;;;;;;;4.17;2.23;;;;;;;;;;5054447;28;20453;-86
2021/12/04 11:51:44;;;;;;;7.37;2.77;;;;;;;;;;5050724;28;20024;-86
2021/12/04 11:54:09;;;;;;;;;;;;;;;;;;5051723;28;20062;-87
2021/12/04 11:56:34;;;;;;;4.07;2.33;;;;;;;;;;5049165;28;19916;-87
2021/12/04 11:58:59;;;;;;;5.83;3.17;;;;;;;;;;5052003;28;20376;-85
2021/12/04 12:01:32;;;;;;;6.70;3.00;;;;;;;;;;5053958;28;20115;-87
2021/12/04 12:04:08;;;;;;;6.10;2.80;;;;;;;;;;5054959;28;20395;-87
2021/12/04 12:06:34;;;;;;;8.23;3.10;;;;;;;;;;5070318;28;20464;-87
2021/12/04 12:09:02;;;;;;;7.37;3.40;;;;;;;;;;5054368;28;20073;-85
2021/12/04 12:11:28;;;;;;;5.47;2.80;;;;;;;;;;5073236;28;20485;-85
2021/12/04 12:13:58;;;;;;;9.17;3.60;;;;;;;;;;5053555;28;20111;-85
2021/12/04 12:16:26;;;;;;;7.87;3.23;;;;;;;;;;5064691;28;20074;-85
2021/12/04 12:18:54;;;;;;;12.30;4.83;;;;;;;;;;5072070;28;20025;-85
2021/12/04 12:21:24;;;;;;;6.67;3.27;;;;;;;;;;5060080;28;20115;-85
2021/12/04 12:32:39;;;;;;;6.20;3.37;;;;;;;;;;5072369;28;20066;-83
2021/12/04 12:37:49;;;;;;;13.47;3.57;;;;;;;;;;5073182;28;20020;-83
2021/12/04 12:40:16;;;;;;;7.18;3.22;;;;;;;;;;5070554;28;20016;-84
2021/12/04 12:42:41;;;;;;;5.80;3.30;;;;;;;;;;5052769;28;20464;-83
2021/12/04 12:45:14;;;;;;;8.90;3.07;;;;;;;;;;5053831;28;20028;-84
2021/12/04 12:47:47;;;;;;;9.07;3.33;;;;;;;;;;5053905;28;20082;-84
2021/12/04 12:50:24;;;;;;;7.20;3.40;;;;;;;;;;5052121;28;20380;-84
2021/12/04 12:52:58;;;;;;;7.37;3.83;;;;;;;;;;5049906;28;20035;-83
2021/12/04 12:55:23;;;;;;;8.23;4.00;;;;;;;;;;5048853;28;20107;-86
2021/12/04 12:57:48;;;;;;;7.07;3.80;;;;;;;;;;5054079;28;20132;-86
2021/12/04 13:14:19;;;;;;;8.70;4.47;;;;;;;;;;5076353;28;20059;-86
2021/12/04 13:16:47;;;;;;;10.90;4.50;;;;;;;;;;5056545;28;20025;-87
2021/12/04 13:19:14;;;;;;;9.00;4.93;;;;;;;;;;5089591;28;20028;-84
2021/12/04 13:21:41;;;;;;;7.70;3.40;;;;;;;;;;5055379;28;20124;-84
2021/12/04 13:24:10;;;;;;;9.17;4.30;;;;;;;;;;5075212;28;20039;-84
2021/12/04 13:26:36;;;;;;;10.07;3.83;;;;;;;;;;5076053;28;20028;-84
2021/12/04 13:29:02;;;;;;;9.50;3.53;;;;;;;;;;5057465;28;20069;-84
2021/12/04 13:31:28;;;;;;;8.10;4.20;;;;;;;;;;5056752;28;20028;-83
2021/12/04 13:33:53;;;;;;;9.93;4.20;;;;;;;;;;5057753;28;20024;-84
2021/12/04 13:36:20;;;;;;;6.33;3.13;;;;;;;;;;5076318;28;20070;-86
2021/12/04 13:38:46;;;;;;;9.17;2.90;;;;;;;;;;5056126;28;20361;-87
2021/12/04 13:41:12;;;;;;;12.53;4.10;;;;;;;;;;5056552;28;20024;-87
2021/12/04 13:43:37;;;;;;;9.13;4.27;;;;;;;;;;5062753;28;20019;-84
2021/12/04 13:46:03;;;;;;;8.03;3.83;;;;;;;;;;5073386;28;20021;-84
2021/12/04 13:48:33;;;;;;;9.10;4.23;;;;;;;;;;5056663;28;20119;-85
2021/12/04 13:50:59;;;;;;;7.30;2.63;;;;;;;;;;5075306;28;20639;-84
2021/12/04 13:53:27;;;;;;;11.60;4.50;;;;;;;;;;5068243;28;20020;-84
2021/12/04 13:56:13;;;;;;;10.17;4.93;;;;;;;;;;5060513;28;20012;-85
2021/12/04 13:58:46;;;;;;;13.00;5.93;;;;;;;;;;5056698;28;20638;-85
2021/12/04 14:01:11;;;;;;;10.90;5.07;;;;;;;;;;5054690;28;20100;-87
2021/12/04 14:03:38;;;;;;;15.50;5.77;;;;;;;;;;5056819;28;20470;-86
2021/12/04 14:06:04;;;;;;;14.83;6.27;;;;;;;;;;5056401;28;20790;-87
2021/12/04 14:08:30;;;;;;;20.17;5.60;;;;;;;;;;5057730;28;20033;-87
2021/12/04 14:10:55;;;;;;;14.40;5.57;;;;;;;;;;5057235;28;20031;-84
2021/12/04 14:13:24;;;;;;;12.63;5.80;;;;;;;;;;5056947;28;20422;-87
2021/12/04 14:15:52;;;;;;;11.17;5.03;;;;;;;;;;5056411;28;20027;-87
2021/12/04 14:18:19;;;;;;;14.00;5.97;;;;;;;;;;5056306;28;20020;-86
2021/12/04 14:20:47;;;;;;;14.07;5.33;;;;;;;;;;5073414;28;20044;-87
2021/12/04 14:23:12;;;;;;;13.70;5.73;;;;;;;;;;5056904;28;20387;-87
2021/12/04 14:25:43;;;;;;;12.60;5.90;;;;;;;;;;5056566;28;20033;-87
2021/12/04 14:28:08;;;;;;;15.40;6.93;;;;;;;;;;5073772;28;20028;-86
2021/12/04 14:30:35;;;;;;;19.73;7.23;;;;;;;;;;5055515;28;20107;-86
2021/12/04 14:33:02;;;;;;;18.07;9.00;;;;;;;;;;5055139;28;20028;-87
2021/12/04 14:35:34;;;;;;;16.33;7.27;;;;;;;;;;5058578;28;20016;-87
2021/12/04 14:38:00;;;;;;;19.17;6.37;;;;;;;;;;5076306;28;20028;-87
2021/12/04 14:40:36;;;;;;;14.13;6.27;;;;;;;;;;5074813;28;20013;-87
2021/12/04 14:43:04;;;;;;;18.80;7.07;;;;;;;;;;5056756;28;20035;-87
2021/12/04 14:45:31;;;;;;;18.97;7.33;;;;;;;;;;5074465;28;20464;-87
2021/12/04 14:48:01;;;;;;;14.50;6.33;;;;;;;;;;5074501;28;20099;-87
2021/12/04 14:50:26;;;;;;;14.87;5.60;;;;;;;;;;5056388;28;20017;-87
2021/12/04 14:53:02;;;;;;;14.20;6.80;;;;;;;;;;5056203;28;20567;-86
2021/12/04 14:55:28;;;;;;;16.73;7.27;;;;;;;;;;5074379;28;20472;-87
2021/12/04 14:57:54;;;;;;;12.33;6.47;;;;;;;;;;5056496;28;20020;-87
2021/12/04 15:00:24;;;;;;;14.53;7.40;;;;;;;;;;5056272;28;20082;-87
2021/12/04 15:02:57;;;;;;;17.53;6.40;;;;;;;;;;5056260;28;20418;-86
2021/12/04 15:05:35;;;;;;;19.83;6.90;;;;;;;;;;5055592;28;20472;-87
2021/12/04 15:08:12;;;;;;;18.40;7.30;;;;;;;;;;5056027;28;20024;-87
2021/12/04 15:10:38;;;;;;;16.90;7.37;;;;;;;;;;5056141;28;20055;-86
2021/12/04 15:13:05;;;;;;;15.87;5.43;;;;;;;;;;5055900;28;20484;-86
2021/12/04 15:15:34;;;;;;;11.37;3.10;;;;;;;;;;5073827;28;20079;-87
2021/12/04 15:18:02;;;;;;;10.53;2.70;;;;;;;;;;5055920;28;20028;-86
2021/12/04 15:20:31;;;;;;;8.70;2.77;;;;;;;;;;5073851;28;20025;-86
2021/12/04 15:22:58;;;;;;;11.17;3.37;;;;;;;;;;5055661;28;20028;-86
2021/12/04 15:25:28;;;;;;;11.03;3.40;;;;;;;;;;5056006;28;20055;-87
2021/12/04 15:27:53;;;;;;;15.97;3.83;;;;;;;;;;5055662;28;20078;-86
2021/12/04 15:30:19;;;;;;;9.57;3.80;;;;;;;;;;5055226;28;20028;-84
2021/12/04 15:32:45;;;;;;;8.93;3.50;;;;;;;;;;5073614;28;20035;-85
2021/12/04 15:35:15;;;;;;;8.77;2.50;;;;;;;;;;5055648;28;20107;-87
2021/12/04 15:37:53;;;;;;;13.67;2.77;;;;;;;;;;5055564;28;20020;-86
2021/12/04 15:40:25;;;;;;;8.47;2.47;;;;;;;;;;5055594;28;20021;-87
2021/12/04 15:42:58;;;;;;;7.80;2.80;;;;;;;;;;5055333;28;20025;-86
2021/12/04 15:48:32;;;;;;;6.60;2.27;;;;;;;;;;5073607;28;20021;-86
2021/12/04 15:50:50;;;;;;;8.77;2.20;;;;;;;;;;5071834;28;20063;-84
2021/12/04 15:53:15;;;;;;;10.90;2.30;;;;;;;;;;5061288;28;20020;-86
2021/12/04 15:55:42;;;;;;;5.83;2.60;;;;;;;;;;5058710;28;20384;-86
2021/12/04 15:58:12;;;;;;;5.23;2.03;;;;;;;;;;5055340;28;20487;-86
2021/12/04 16:00:40;;;;;;;13.77;2.40;;;;;;;;;;5055273;28;20028;-87
2021/12/04 16:03:10;;;;;;;10.80;3.23;;;;;;;;;;5054352;28;20044;-86
2021/12/04 16:05:38;;;;;;;12.87;3.10;;;;;;;;;;5055549;28;20431;-87
2021/12/04 16:08:06;;;;;;;13.57;3.50;;;;;;;;;;5054467;28;20021;-87
2021/12/04 16:10:34;;;;;;;13.07;3.43;;;;;;;;;;5055209;28;20020;-87
2021/12/04 16:12:59;;;;;;;18.70;4.60;;;;;;;;;;5054654;28;20028;-86
2021/12/04 16:15:25;;;;;;;16.77;4.10;;;;;;;;;;5054555;28;20543;-87
2021/12/04 16:17:51;;;;;;;14.13;4.47;;;;;;;;;;5054401;28;20021;-87
2021/12/04 16:20:18;;;;;;;14.23;4.10;;;;;;;;;;5073313;28;20638;-87
2021/12/04 16:22:45;;;;;;;21.33;4.83;;;;;;;;;;5054883;28;20104;-87
2021/12/04 16:25:16;;;;;;;20.03;5.13;;;;;;;;;;5059478;28;20536;-87
2021/12/04 16:37:56;;;;;;;21.27;4.50;;;;;;;;;;5053176;28;20104;-87
2021/12/04 16:40:26;;;;;;;18.90;4.33;;;;;;;;;;5041606;28;20055;-87
2021/12/04 16:42:59;;;;;;;11.70;4.00;;;;;;;;;;5058182;28;20112;-87
2021/12/04 16:45:26;;;;;;;22.43;4.50;;;;;;;;;;5058422;28;20009;-86
2021/12/04 16:47:53;;;;;;;10.07;3.13;;;;;;;;;;5058089;28;20047;-87
2021/12/04 16:50:21;;;;;;;12.47;3.30;;;;;;;;;;5076310;28;20031;-87
2021/12/04 16:58:37;;;;;;;11.30;3.27;;;;;;;;;;5034354;28;20071;-87
2021/12/04 17:01:02;;;;;;;15.90;3.30;;;;;;;;;;5033736;28;20027;-87
2021/12/04 17:03:27;;;;;;;8.87;3.40;;;;;;;;;;5037827;28;20541;-87
2021/12/04 17:05:53;;;;;;;12.67;3.70;;;;;;;;;;5044816;28;20746;-87
2021/12/04 17:08:20;;;;;;;12.73;3.37;;;;;;;;;;5038459;28;20495;-87
2021/12/04 17:10:45;;;;;;;11.13;2.57;;;;;;;;;;5047196;28;20486;-87
2021/12/04 17:13:11;;;;;;;10.00;3.17;;;;;;;;;;5058403;28;20020;-87
2021/12/04 17:15:42;;;;;;;18.57;3.13;;;;;;;;;;5057355;28;20388;-87
2021/12/04 17:18:15;;;;;;;14.90;3.20;;;;;;;;;;5058111;28;20028;-87
2021/12/04 17:20:40;;;;;;;13.23;2.77;;;;;;;;;;5057976;28;20040;-87
2021/12/04 17:23:05;;;;;;;11.63;2.97;;;;;;;;;;5058210;28;20055;-87
2021/12/04 17:25:33;;;;;;;12.27;2.80;;;;;;;;;;5057956;28;20527;-87
2021/12/04 17:27:58;;;;;;;14.67;3.30;;;;;;;;;;5069630;28;20023;-88
2021/12/04 17:30:23;;;;;;;8.17;3.10;;;;;;;;;;5071092;28;20464;-88
2021/12/04 17:32:49;;;;;;;12.00;3.10;;;;;;;;;;5075875;28;20508;-87
2021/12/04 17:35:16;;;;;;;15.73;3.67;;;;;;;;;;5075999;28;20016;-87
2021/12/04 17:37:42;;;;;;;10.83;2.60;;;;;;;;;;5057541;28;20051;-85
2021/12/04 17:40:07;;;;;;;11.43;3.07;;;;;;;;;;5057738;28;20046;-87
2021/12/04 17:42:33;;;;;;;19.77;2.53;;;;;;;;;;5057755;28;20314;-88
2021/12/04 17:44:59;;;;;;;13.27;2.33;;;;;;;;;;5057761;28;20025;-87
2021/12/04 17:47:27;;;;;;;20.13;3.07;;;;;;;;;;5060123;28;20490;-87
2021/12/04 17:49:52;;;;;;;19.80;3.23;;;;;;;;;;5057795;28;20050;-87
2021/12/04 17:52:18;;;;;;;12.43;3.00;;;;;;;;;;5057035;28;20070;-87
2021/12/04 17:54:43;;;;;;;16.03;3.00;;;;;;;;;;5057522;28;20464;-87
2021/12/04 17:57:08;;;;;;;11.43;2.70;;;;;;;;;;5057318;28;20043;-87